| time (UTC) | temp C | wind direction | speed KPH | gust KPH | rain 1hr cm | rain 24hr cm | rain mn cm | humidity % | barometer mb |
| 20260502170105 | 35 | 59 | 1.6 | 12.9 | 0.00 | 0.00 | 0.00 | 69 | 1009.7 |
| 20260502163057 | 33 | 320 | 1.6 | 14.5 | 0.00 | 0.00 | 0.00 | 76 | 1009.9 |
| 20260502161554 | 33 | 265 | 4.8 | 14.5 | 0.00 | 0.00 | 0.00 | 77 | 1009.9 |
| 20260502151605 | 31 | 22 | 6.4 | 12.9 | 0.00 | 0.00 | 0.00 | 84 | 1009.6 |
| 20260502140123 | 30 | 22 | 4.8 | 12.9 | 0.00 | 0.00 | 0.00 | 89 | 1008.9 |
| 20260502123048 | 26 | 45 | 4.8 | 12.9 | 0.00 | 0.00 | 0.00 | 97 | 1007.8 |
| 20260502121551 | 26 | 360 | 4.8 | 14.5 | 0.00 | 0.00 | 0.00 | 97 | 1007.3 |
| 20260502114553 | 26 | 72 | 1.6 | 4.8 | 0.00 | 0.00 | 0.00 | 94 | 1006.9 |
| 20260502113055 | 26 | 49 | 1.6 | 4.8 | 0.00 | 0.00 | 0.00 | 91 | 1006.6 |
| 20260502111551 | 27 | 339 | 1.6 | 4.8 | 0.00 | 0.00 | 0.00 | 89 | 1006.3 |
| 20260502104556 | 27 | 336 | 0.0 | 6.4 | 0.00 | 0.00 | 0.00 | 81 | 1006.0 |
| 20260502103055 | 27 | 36 | 1.6 | 6.4 | 0.00 | 0.00 | 0.00 | 80 | 1005.9 |
| 20260502101721 | 27 | 15 | 0.0 | 4.8 | 0.00 | 0.00 | 0.00 | 81 | 1005.7 |
| 20260502090112 | 28 | 300 | 0.0 | 1.6 | 0.00 | 0.00 | 0.00 | 83 | 1005.6 |
| 20260502070107 | 29 | 9 | 1.6 | 6.4 | 0.00 | 0.00 | 0.00 | 80 | 1005.8 |
| 20260502064605 | 28 | 210 | 0.0 | 4.8 | 0.00 | 0.00 | 0.00 | 85 | 1005.6 |
| 20260502063054 | 30 | 138 | 0.0 | 3.2 | 0.00 | 0.00 | 0.00 | 85 | 1005.8 |
| 20260502061549 | 30 | 0 | 0.0 | 3.2 | 0.00 | 0.00 | 0.00 | 84 | 1005.9 |
| 20260502060051 | 29 | 0 | 0.0 | 6.4 | 0.00 | 0.00 | 0.00 | 87 | 1005.8 |
| 20260502054555 | 29 | 13 | 3.2 | 6.4 | 0.00 | 0.00 | 0.00 | 89 | 1006.0 |
| 20260502053049 | 29 | 0 | 0.0 | 3.2 | 0.00 | 0.00 | 0.00 | 88 | 1005.9 |
| 20260502051556 | 29 | 238 | 1.6 | 6.4 | 0.00 | 0.00 | 0.00 | 89 | 1005.8 |
| 20260502050050 | 30 | 229 | 1.6 | 6.4 | 0.00 | 0.00 | 0.00 | 89 | 1005.7 |
| 20260502044554 | 30 | 283 | 3.2 | 4.8 | 0.00 | 0.00 | 0.00 | 88 | 1005.7 |
| 20260502043050 | 30 | 0 | 1.6 | 6.4 | 0.00 | 0.00 | 0.00 | 87 | 1005.8 |
| 20260502041559 | 30 | 227 | 1.6 | 6.4 | 0.00 | 0.00 | 0.00 | 88 | 1005.8 |
| 20260502040056 | 30 | 296 | 1.6 | 4.8 | 0.00 | 0.00 | 0.00 | 88 | 1005.6 |
| 20260502034551 | 30 | 0 | 1.6 | 4.8 | 0.00 | 0.00 | 0.00 | 88 | 1005.4 |
| 20260502033051 | 30 | 222 | 1.6 | 4.8 | 0.00 | 0.00 | 0.00 | 87 | 1005.3 |
| 20260502031555 | 30 | 213 | 0.0 | 3.2 | 0.00 | 0.00 | 0.00 | 88 | 1005.0 |
| 20260502030057 | 30 | 309 | 1.6 | 4.8 | 0.00 | 0.00 | 0.00 | 87 | 1004.8 |
| 20260502024604 | 31 | 40 | 0.0 | 1.6 | 0.00 | 0.00 | 0.00 | 86 | 1004.5 |
| 20260502023106 | 30 | 0 | 0.0 | 3.2 | 0.00 | 0.00 | 0.00 | 87 | 1004.4 |
| 20260502021550 | 31 | 16 | 1.6 | 4.8 | 0.00 | 0.00 | 0.00 | 85 | 1004.1 |
| 20260502020053 | 31 | 0 | 0.0 | 4.8 | 0.00 | 0.00 | 0.00 | 84 | 1003.9 |
| 20260502014551 | 32 | 0 | 0.0 | 4.8 | 0.00 | 0.00 | 0.00 | 83 | 1003.6 |
| 20260502013056 | 32 | 79 | 1.6 | 4.8 | 0.00 | 0.00 | 0.00 | 81 | 1003.2 |
| 20260502011550 | 32 | 0 | 1.6 | 4.8 | 0.00 | 0.00 | 0.00 | 81 | 1003.0 |
| 20260502010053 | 33 | 92 | 3.2 | 6.4 | 0.00 | 0.00 | 0.00 | 80 | 1002.7 |
| 20260502004551 | 33 | 82 | 3.2 | 4.8 | 0.00 | 0.00 | 0.00 | 80 | 1002.5 |
| 20260502003052 | 33 | 98 | 3.2 | 8.0 | 0.00 | 0.00 | 0.00 | 79 | 1002.3 |
| 20260502001608 | 33 | 60 | 3.2 | 6.4 | 0.00 | 0.00 | 0.00 | 78 | 1002.1 |
| 20260501234549 | 35 | 42 | 3.2 | 9.7 | 0.00 | 0.00 | 0.00 | 75 | 1001.8 |
| 20260501233049 | 35 | 49 | 3.2 | 11.3 | 0.00 | 0.00 | 0.00 | 74 | 1001.6 |
| 20260501231549 | 35 | 67 | 3.2 | 12.9 | 0.00 | 0.00 | 0.00 | 75 | 1001.7 |
| 20260501230049 | 36 | 54 | 4.8 | 12.9 | 0.00 | 0.00 | 0.00 | 72 | 1001.6 |
| 20260501224605 | 36 | 69 | 8.0 | 16.1 | 0.00 | 0.00 | 0.00 | 70 | 1001.5 |
| 20260501223050 | 36 | 51 | 8.0 | 16.1 | 0.00 | 0.00 | 0.00 | 71 | 1001.6 |
| 20260501221551 | 36 | 45 | 8.0 | 19.3 | 0.00 | 0.00 | 0.00 | 72 | 1001.6 |
| 20260501220056 | 36 | 249 | 9.7 | 19.3 | 0.00 | 0.00 | 0.00 | 72 | 1001.7 |
| 20260501214557 | 36 | 77 | 8.0 | 16.1 | 0.00 | 0.00 | 0.00 | 70 | 1001.7 |
| 20260501213050 | 36 | 101 | 8.0 | 17.7 | 0.00 | 0.00 | 0.00 | 69 | 1001.9 |
| 20260501211551 | 36 | 62 | 8.0 | 19.3 | 0.00 | 0.00 | 0.00 | 70 | 1002.1 |
| 20260501210054 | 36 | 17 | 8.0 | 14.5 | 0.00 | 0.00 | 0.00 | 67 | 1002.2 |
| 20260501204549 | 36 | 40 | 8.0 | 16.1 | 0.00 | 0.00 | 0.00 | 69 | 1002.4 |
| 20260501203050 | 36 | 42 | 6.4 | 16.1 | 0.00 | 0.00 | 0.00 | 69 | 1002.7 |
| 20260501201556 | 36 | 25 | 4.8 | 17.7 | 0.00 | 0.00 | 0.00 | 70 | 1003.0 |
| 20260501200054 | 36 | 72 | 4.8 | 11.3 | 0.00 | 0.00 | 0.00 | 70 | 1003.4 |
| 20260501194558 | 36 | 110 | 6.4 | 14.5 | 0.00 | 0.00 | 0.00 | 70 | 1003.7 |
| 20260501193052 | 35 | 17 | 4.8 | 14.5 | 0.00 | 0.00 | 0.00 | 71 | 1004.1 |
| 20260501191554 | 35 | 360 | 8.0 | 16.1 | 0.00 | 0.00 | 0.00 | 71 | 1004.5 |
| 20260501190048 | 35 | 61 | 4.8 | 16.1 | 0.00 | 0.00 | 0.00 | 72 | 1004.7 |
| 20260501184555 | 35 | 53 | 4.8 | 12.9 | 0.00 | 0.00 | 0.00 | 72 | 1005.1 |
| 20260501183046 | 35 | 27 | 3.2 | 11.3 | 0.00 | 0.00 | 0.00 | 73 | 1005.3 |
| 20260501181546 | 35 | 11 | 3.2 | 12.9 | 0.00 | 0.00 | 0.00 | 72 | 1005.5 |
| 20260501180054 | 34 | 55 | 3.2 | 14.5 | 0.00 | 0.00 | 0.00 | 74 | 1005.8 |
| 20260501174549 | 34 | 79 | 4.8 | 12.9 | 0.00 | 0.00 | 0.00 | 74 | 1006.0 |
| 20260501173116 | 34 | 86 | 3.2 | 11.3 | 0.00 | 0.00 | 0.00 | 74 | 1006.1 |